Time;durP1;ratioP1;P1;durP2;ratioP2;P2;SDS_P1;SDS_P2;PMS_P1;PMS_P2;Temp;Humidity;BMP_temperature;BMP_pressure;BME280_temperature;BME280_humidity;BME280_pressure;Samples;Min_cycle;Max_cycle;Signal;HPM_P1;HPM_P2
2023/02/18 00:02:14;;;;;;;;;;;18.30;51.00;;;;;;10119796;28;826;-75
2023/02/18 00:07:09;;;;;;;;;;;18.20;51.50;;;;;;10119659;28;770;-75
2023/02/18 00:12:04;;;;;;;;;;;18.20;50.90;;;;;;10119831;28;1902;-76
2023/02/18 00:17:00;;;;;;;;;;;18.30;51.00;;;;;;10119412;28;829;-75
2023/02/18 00:21:55;;;;;;;;;;;18.30;51.00;;;;;;10119430;28;762;-75
2023/02/18 00:26:50;;;;;;;;;;;18.30;51.00;;;;;;10119162;28;859;-76
2023/02/18 00:31:46;;;;;;;;;;;18.30;51.00;;;;;;10118931;28;1956;-75
2023/02/18 00:36:41;;;;;;;;;;;18.30;51.00;;;;;;10119649;28;873;-76
2023/02/18 00:41:37;;;;;;;;;;;18.30;51.00;;;;;;10118354;28;1322;-75
2023/02/18 00:46:32;;;;;;;;;;;18.20;51.00;;;;;;10124724;28;778;-75
2023/02/18 00:51:27;;;;;;;;;;;18.20;51.00;;;;;;10126418;28;1911;-75
2023/02/18 00:56:23;;;;;;;;;;;18.20;51.00;;;;;;10126027;28;861;-76
2023/02/18 01:01:18;;;;;;;;;;;18.20;51.00;;;;;;10125942;28;770;-75
2023/02/18 01:06:13;;;;;;;;;;;18.20;50.90;;;;;;10125142;28;909;-75
2023/02/18 01:11:09;;;;;;;;;;;18.20;51.20;;;;;;10124965;28;1957;-76
2023/02/18 01:16:04;;;;;;;;;;;18.20;51.00;;;;;;10124862;28;817;-76
2023/02/18 01:20:59;;;;;;;;;;;18.20;51.10;;;;;;10125914;28;965;-76
2023/02/18 01:25:55;;;;;;;;;;;18.20;51.00;;;;;;10124600;28;761;-76
2023/02/18 01:30:51;;;;;;;;;;;18.20;51.00;;;;;;10124667;28;1966;-75
2023/02/18 01:35:46;;;;;;;;;;;18.20;51.00;;;;;;10124811;28;798;-75
2023/02/18 01:40:41;;;;;;;;;;;18.20;51.00;;;;;;10125199;28;1689;-76
2023/02/18 01:45:37;;;;;;;;;;;18.20;51.10;;;;;;10125042;28;818;-75
2023/02/18 01:50:32;;;;;;;;;;;18.20;51.00;;;;;;10124268;28;1910;-75
2023/02/18 01:55:27;;;;;;;;;;;18.10;51.00;;;;;;10123633;28;861;-75
2023/02/18 02:00:23;;;;;;;;;;;18.20;51.00;;;;;;10124379;28;958;-75
2023/02/18 02:05:18;;;;;;;;;;;18.20;51.00;;;;;;10123451;28;931;-75
2023/02/18 02:10:14;;;;;;;;;;;18.10;51.00;;;;;;10123207;28;1902;-75
2023/02/18 02:15:09;;;;;;;;;;;18.20;51.10;;;;;;10123685;28;853;-75
2023/02/18 02:20:04;;;;;;;;;;;18.10;51.00;;;;;;10122462;28;1015;-75
2023/02/18 02:25:00;;;;;;;;;;;18.10;51.00;;;;;;10122809;28;867;-76
2023/02/18 02:29:55;;;;;;;;;;;18.10;51.10;;;;;;10123227;28;1902;-75
2023/02/18 02:34:50;;;;;;;;;;;18.10;51.10;;;;;;10122510;28;967;-75
2023/02/18 02:39:46;;;;;;;;;;;18.10;51.20;;;;;;10122362;28;801;-75
2023/02/18 02:44:41;;;;;;;;;;;18.10;51.20;;;;;;10123213;28;1397;-75
2023/02/18 02:49:36;;;;;;;;;;;18.10;51.20;;;;;;10121984;28;1986;-75
2023/02/18 02:54:32;;;;;;;;;;;18.10;51.20;;;;;;10121915;28;751;-75
2023/02/18 02:59:27;;;;;;;;;;;18.10;51.20;;;;;;10137308;28;1593;-75
2023/02/18 03:04:22;;;;;;;;;;;18.10;51.20;;;;;;10122803;28;900;-75
2023/02/18 03:09:18;;;;;;;;;;;18.10;51.20;;;;;;10120935;28;809;-75
2023/02/18 03:14:13;;;;;;;;;;;18.00;51.20;;;;;;10121710;28;1907;-76
2023/02/18 03:19:08;;;;;;;;;;;18.00;51.10;;;;;;10121722;28;807;-75
2023/02/18 03:24:04;;;;;;;;;;;18.00;51.10;;;;;;10120899;28;889;-75
2023/02/18 03:28:59;;;;;;;;;;;18.00;51.20;;;;;;10121403;28;773;-75
2023/02/18 03:33:55;;;;;;;;;;;18.00;51.20;;;;;;10120004;28;1906;-75
2023/02/18 03:38:50;;;;;;;;;;;18.00;51.20;;;;;;10121231;28;796;-75
2023/02/18 03:43:45;;;;;;;;;;;18.00;51.10;;;;;;10120157;28;1168;-75
2023/02/18 03:48:41;;;;;;;;;;;18.00;51.10;;;;;;10120241;28;852;-75
2023/02/18 03:53:36;;;;;;;;;;;18.00;51.10;;;;;;10120034;28;1914;-75
2023/02/18 03:58:31;;;;;;;;;;;18.00;51.10;;;;;;10120000;28;901;-75
2023/02/18 04:03:27;;;;;;;;;;;18.00;51.20;;;;;;10119985;28;975;-75
2023/02/18 04:08:22;;;;;;;;;;;18.00;51.10;;;;;;10119705;28;837;-76
2023/02/18 04:13:17;;;;;;;;;;;18.00;51.10;;;;;;10119462;28;1902;-75
2023/02/18 04:18:13;;;;;;;;;;;18.00;51.10;;;;;;10119068;28;924;-76
2023/02/18 04:23:08;;;;;;;;;;;18.00;51.10;;;;;;10119858;28;885;-75
2023/02/18 04:28:03;;;;;;;;;;;18.00;51.10;;;;;;10119722;28;900;-75
2023/02/18 04:32:59;;;;;;;;;;;18.00;51.10;;;;;;10119662;28;1898;-76
2023/02/18 04:37:54;;;;;;;;;;;18.00;51.10;;;;;;10118297;28;937;-75
2023/02/18 04:42:50;;;;;;;;;;;18.10;51.10;;;;;;10119646;28;1309;-75
2023/02/18 04:47:45;;;;;;;;;;;18.10;51.10;;;;;;10119269;28;791;-76
2023/02/18 04:52:40;;;;;;;;;;;18.10;51.00;;;;;;10117896;28;1969;-75
2023/02/18 04:57:36;;;;;;;;;;;18.10;51.00;;;;;;10118416;28;905;-76
2023/02/18 05:02:31;;;;;;;;;;;18.10;51.10;;;;;;10118408;28;912;-75
2023/02/18 05:07:26;;;;;;;;;;;18.10;51.10;;;;;;10118175;28;897;-76
2023/02/18 05:12:22;;;;;;;;;;;18.10;51.00;;;;;;10117999;28;1898;-75
2023/02/18 05:17:17;;;;;;;;;;;18.10;51.10;;;;;;10118771;28;865;-75
2023/02/18 05:22:12;;;;;;;;;;;18.10;51.10;;;;;;10118425;28;902;-75
2023/02/18 05:27:08;;;;;;;;;;;18.10;51.20;;;;;;10117084;28;1000;-75
2023/02/18 05:32:03;;;;;;;;;;;18.10;51.10;;;;;;10121506;28;1898;-75
2023/02/18 05:36:58;;;;;;;;;;;18.10;51.10;;;;;;10124329;28;865;-76
2023/02/18 05:41:54;;;;;;;;;;;18.10;51.10;;;;;;10124758;28;1160;-75
2023/02/18 05:46:49;;;;;;;;;;;18.10;51.00;;;;;;10124081;28;894;-75
2023/02/18 05:51:44;;;;;;;;;;;18.10;51.00;;;;;;10124409;28;1902;-75
2023/02/18 05:56:40;;;;;;;;;;;18.10;51.10;;;;;;10124612;28;956;-75
2023/02/18 06:01:35;;;;;;;;;;;18.20;51.00;;;;;;10124136;28;805;-76
2023/02/18 06:06:31;;;;;;;;;;;18.20;51.10;;;;;;10124080;28;873;-75
2023/02/18 06:11:26;;;;;;;;;;;18.20;51.10;;;;;;10123199;28;1969;-75
2023/02/18 06:16:21;;;;;;;;;;;18.20;51.10;;;;;;10123944;28;773;-75
2023/02/18 06:21:17;;;;;;;;;;;18.20;51.00;;;;;;10122928;28;981;-75
2023/02/18 06:26:12;;;;;;;;;;;18.20;51.00;;;;;;10122829;28;788;-78
2023/02/18 06:31:07;;;;;;;;;;;18.20;51.10;;;;;;10122581;28;1898;-79
2023/02/18 06:36:05;;;;;;;;;;;18.20;51.10;;;;;;10123342;28;873;-78
2023/02/18 06:41:01;;;;;;;;;;;18.20;51.10;;;;;;10121863;28;1353;-78
2023/02/18 06:45:56;;;;;;;;;;;18.20;50.90;;;;;;10122833;28;888;-78
2023/02/18 06:50:51;;;;;;;;;;;18.20;51.00;;;;;;10122483;28;1907;-79
2023/02/18 06:55:47;;;;;;;;;;;18.20;51.00;;;;;;10121964;28;821;-78
2023/02/18 07:00:42;;;;;;;;;;;18.20;51.00;;;;;;10121731;28;815;-79
2023/02/18 07:05:38;;;;;;;;;;;18.30;51.20;;;;;;10122441;28;907;-77
2023/02/18 07:10:33;;;;;;;;;;;18.30;51.30;;;;;;10121414;28;1906;-79
2023/02/18 07:15:28;;;;;;;;;;;18.20;51.20;;;;;;10121378;28;789;-78
2023/02/18 07:20:24;;;;;;;;;;;18.20;51.20;;;;;;10121753;28;857;-79
2023/02/18 07:25:19;;;;;;;;;;;18.20;51.30;;;;;;10121003;28;790;-79
2023/02/18 07:30:15;;;;;;;;;;;18.20;51.40;;;;;;10120725;28;1898;-79
2023/02/18 07:35:10;;;;;;;;;;;18.20;51.50;;;;;;10121275;28;810;-76
2023/02/18 07:40:05;;;;;;;;;;;18.20;51.50;;;;;;10121272;28;877;-76
2023/02/18 07:45:01;;;;;;;;;;;18.20;51.50;;;;;;10121340;28;1259;-78
2023/02/18 07:49:56;;;;;;;;;;;18.30;51.40;;;;;;10120817;28;1902;-80
2023/02/18 07:54:51;;;;;;;;;;;18.30;51.40;;;;;;10120111;28;810;-78
2023/02/18 07:59:47;;;;;;;;;;;18.30;51.40;;;;;;10119440;28;1016;-78
2023/02/18 08:04:42;;;;;;;;;;;18.30;51.40;;;;;;10120410;28;818;-76
2023/02/18 08:09:38;;;;;;;;;;;18.30;51.50;;;;;;10119972;28;955;-78
2023/02/18 08:14:33;;;;;;;;;;;18.30;51.50;;;;;;10119545;28;1902;-78
2023/02/18 08:19:28;;;;;;;;;;;18.30;51.60;;;;;;10119854;28;814;-76
2023/02/18 08:24:24;;;;;;;;;;;18.30;51.60;;;;;;10119291;28;874;-77
2023/02/18 08:29:19;;;;;;;;;;;18.30;51.60;;;;;;10119190;28;750;-77
2023/02/18 08:34:14;;;;;;;;;;;18.30;51.70;;;;;;10118366;28;1898;-78
2023/02/18 08:39:10;;;;;;;;;;;18.30;51.80;;;;;;10119725;28;888;-78
2023/02/18 08:44:05;;;;;;;;;;;18.30;51.90;;;;;;10119172;28;1153;-78
2023/02/18 08:49:00;;;;;;;;;;;18.30;51.90;;;;;;10118481;28;821;-78
2023/02/18 08:53:56;;;;;;;;;;;18.30;52.40;;;;;;10119065;28;1961;-78
2023/02/18 08:58:51;;;;;;;;;;;18.30;51.80;;;;;;10117837;28;791;-78
2023/02/18 09:03:47;;;;;;;;;;;18.20;51.80;;;;;;10117727;28;830;-77
2023/02/18 09:08:42;;;;;;;;;;;18.20;51.70;;;;;;10124378;28;894;-78
2023/02/18 09:13:38;;;;;;;;;;;18.20;51.70;;;;;;10125613;28;1895;-78
2023/02/18 09:18:36;;;;;;;;;;;18.30;51.70;;;;;;10125484;28;865;-78
2023/02/18 09:23:32;;;;;;;;;;;18.20;51.50;;;;;;10124757;28;901;-78
2023/02/18 09:28:27;;;;;;;;;;;18.10;51.50;;;;;;10125223;28;774;-78
2023/02/18 09:33:22;;;;;;;;;;;18.10;51.60;;;;;;10124429;28;1956;-76
2023/02/18 09:38:18;;;;;;;;;;;18.10;51.50;;;;;;10124389;28;786;-73
2023/02/18 09:43:13;;;;;;;;;;;18.10;51.50;;;;;;10124839;28;1164;-76
2023/02/18 09:48:08;;;;;;;;;;;18.20;51.60;;;;;;10124047;28;965;-76
2023/02/18 09:53:04;;;;;;;;;;;18.20;52.10;;;;;;10124123;28;1963;-73
2023/02/18 09:57:59;;;;;;;;;;;18.20;51.50;;;;;;10124444;28;818;-72
2023/02/18 10:02:55;;;;;;;;;;;18.10;51.30;;;;;;10124278;28;801;-76
2023/02/18 10:07:50;;;;;;;;;;;18.10;51.40;;;;;;10124006;28;845;-75
2023/02/18 10:12:45;;;;;;;;;;;18.10;51.30;;;;;;10123787;28;1902;-77
2023/02/18 10:17:41;;;;;;;;;;;18.20;51.30;;;;;;10122294;28;907;-76
2023/02/18 10:22:36;;;;;;;;;;;18.20;51.30;;;;;;10122864;28;778;-76
2023/02/18 10:27:31;;;;;;;;;;;18.20;51.40;;;;;;10123628;28;887;-76
2023/02/18 10:32:27;;;;;;;;;;;18.20;51.20;;;;;;10122678;28;1953;-76
2023/02/18 10:37:22;;;;;;;;;;;18.10;51.30;;;;;;10122503;28;864;-76
2023/02/18 10:42:18;;;;;;;;;;;18.20;51.40;;;;;;10122524;28;1093;-75
2023/02/18 10:47:13;;;;;;;;;;;18.30;52.00;;;;;;10122339;28;939;-76
2023/02/18 10:52:08;;;;;;;;;;;18.30;52.60;;;;;;10122024;28;1962;-77
2023/02/18 10:57:04;;;;;;;;;;;18.20;53.20;;;;;;10121914;28;833;-77
2023/02/18 11:01:59;;;;;;;;;;;18.30;53.50;;;;;;10121730;28;747;-78
2023/02/18 11:06:54;;;;;;;;;;;18.30;53.50;;;;;;10122848;28;874;-78
2023/02/18 11:11:50;;;;;;;;;;;18.20;53.50;;;;;;10121474;28;1891;-74
2023/02/18 11:16:45;;;;;;;;;;;18.20;53.50;;;;;;10122060;28;904;-77
2023/02/18 11:21:41;;;;;;;;;;;18.20;53.30;;;;;;10120620;28;879;-74
2023/02/18 11:26:36;;;;;;;;;;;18.20;53.50;;;;;;10121582;28;886;-79
2023/02/18 11:31:31;;;;;;;;;;;18.10;53.20;;;;;;10120509;28;1899;-74
2023/02/18 11:36:27;;;;;;;;;;;18.10;53.30;;;;;;10121381;28;864;-79
2023/02/18 11:41:22;;;;;;;;;;;18.10;53.20;;;;;;10120365;28;1421;-79
2023/02/18 11:46:18;;;;;;;;;;;18.20;53.50;;;;;;10120508;28;865;-79
2023/02/18 11:51:13;;;;;;;;;;;18.20;53.60;;;;;;10121156;28;1907;-78
2023/02/18 11:56:08;;;;;;;;;;;18.20;53.80;;;;;;10119933;28;944;-79
2023/02/18 12:01:04;;;;;;;;;;;18.20;53.90;;;;;;10119948;28;952;-78
2023/02/18 12:05:59;;;;;;;;;;;18.10;54.00;;;;;;10120454;28;845;-77
2023/02/18 12:10:54;;;;;;;;;;;18.00;53.90;;;;;;10120129;28;1898;-75
2023/02/18 12:15:50;;;;;;;;;;;17.90;53.70;;;;;;10118974;28;1163;-76
2023/02/18 12:20:45;;;;;;;;;;;17.90;53.60;;;;;;10119425;28;893;-75
2023/02/18 12:25:40;;;;;;;;;;;17.90;53.50;;;;;;10119519;28;908;-78
2023/02/18 12:30:36;;;;;;;;;;;17.90;53.50;;;;;;10119106;28;1898;-76
2023/02/18 12:35:31;;;;;;;;;;;17.90;53.40;;;;;;10119023;28;775;-78
2023/02/18 12:40:26;;;;;;;;;;;17.90;53.30;;;;;;10118859;28;1268;-76
2023/02/18 12:45:22;;;;;;;;;;;17.90;53.20;;;;;;10118971;28;534;-76
2023/02/18 12:50:18;;;;;;;;;;;17.90;53.10;;;;;;10118233;28;1971;-77
2023/02/18 12:55:13;;;;;;;;;;;17.90;53.00;;;;;;10118208;28;795;-77
2023/02/18 13:00:08;;;;;;;;;;;17.90;52.90;;;;;;10118136;28;806;-77
2023/02/18 13:05:04;;;;;;;;;;;17.90;52.80;;;;;;10117379;28;794;-78
2023/02/18 13:09:59;;;;;;;;;;;17.90;52.80;;;;;;10117245;28;1895;-78
2023/02/18 13:14:56;;;;;;;;;;;17.80;52.70;;;;;;10117792;28;833;-78
2023/02/18 13:19:51;;;;;;;;;;;17.90;52.70;;;;;;10117662;28;909;-74
2023/02/18 13:24:46;;;;;;;;;;;17.90;52.70;;;;;;10117622;28;878;-78
2023/02/18 13:29:42;;;;;;;;;;;18.00;53.10;;;;;;10118035;28;841;-79
2023/02/18 13:34:38;;;;;;;;;;;18.10;54.10;;;;;;10117902;28;1965;-79
2023/02/18 13:39:33;;;;;;;;;;;18.20;53.80;;;;;;10117076;28;901;-80
2023/02/18 13:44:29;;;;;;;;;;;18.20;53.90;;;;;;10117538;28;1255;-77
2023/02/18 13:49:24;;;;;;;;;;;18.20;53.90;;;;;;10117410;28;898;-78
2023/02/18 13:54:19;;;;;;;;;;;18.30;54.00;;;;;;10122278;28;1973;-79
2023/02/18 13:59:15;;;;;;;;;;;18.30;54.10;;;;;;10123539;28;769;-79
2023/02/18 14:04:10;;;;;;;;;;;18.20;54.10;;;;;;10123510;28;806;-79
2023/02/18 14:09:05;;;;;;;;;;;18.30;54.10;;;;;;10122539;28;1004;-80
2023/02/18 14:14:01;;;;;;;;;;;18.20;54.00;;;;;;10122977;28;1903;-81
2023/02/18 14:18:56;;;;;;;;;;;18.20;54.10;;;;;;10123460;28;833;-81
2023/02/18 14:23:52;;;;;;;;;;;18.20;54.00;;;;;;10123277;28;813;-81
2023/02/18 14:28:47;;;;;;;;;;;18.20;54.00;;;;;;10122780;28;866;-80
2023/02/18 14:33:43;;;;;;;;;;;18.30;54.00;;;;;;10122441;28;1910;-81
2023/02/18 14:38:38;;;;;;;;;;;18.20;53.90;;;;;;10123317;28;952;-81
2023/02/18 14:43:33;;;;;;;;;;;18.20;53.90;;;;;;10121629;28;1481;-81
2023/02/18 14:48:30;;;;;;;;;;;18.20;53.80;;;;;;10122209;28;1143;-80
2023/02/18 14:53:25;;;;;;;;;;;18.20;53.90;;;;;;10121769;28;1911;-82
2023/02/18 14:58:20;;;;;;;;;;;18.20;53.90;;;;;;10122306;28;924;-81
2023/02/18 15:03:16;;;;;;;;;;;18.20;53.90;;;;;;10120978;28;979;-82
2023/02/18 15:08:11;;;;;;;;;;;18.30;53.90;;;;;;10120843;28;838;-82
2023/02/18 15:13:07;;;;;;;;;;;18.20;53.80;;;;;;10121539;28;1899;-81
2023/02/18 15:18:02;;;;;;;;;;;18.30;53.80;;;;;;10121118;28;900;-81
2023/02/18 15:22:57;;;;;;;;;;;18.20;53.70;;;;;;10120906;28;781;-80
2023/02/18 15:27:53;;;;;;;;;;;18.30;53.90;;;;;;10120854;28;925;-81
2023/02/18 15:32:49;;;;;;;;;;;18.20;53.70;;;;;;10120226;28;1898;-81
2023/02/18 15:37:44;;;;;;;;;;;18.20;53.80;;;;;;10121052;28;778;-82
2023/02/18 15:42:39;;;;;;;;;;;18.30;53.90;;;;;;10119819;28;1310;-80
2023/02/18 15:47:35;;;;;;;;;;;18.20;53.90;;;;;;10120165;28;1191;-81
2023/02/18 15:52:30;;;;;;;;;;;18.30;53.90;;;;;;10119910;28;1907;-81
2023/02/18 15:57:26;;;;;;;;;;;18.30;53.90;;;;;;10120446;28;854;-82
2023/02/18 16:02:21;;;;;;;;;;;18.30;53.90;;;;;;10119018;28;968;-82
2023/02/18 16:07:17;;;;;;;;;;;18.20;53.90;;;;;;10119605;28;783;-81
2023/02/18 16:12:12;;;;;;;;;;;18.20;53.90;;;;;;10119313;28;1902;-82
2023/02/18 16:17:07;;;;;;;;;;;18.20;53.90;;;;;;10118714;28;778;-82
2023/02/18 16:22:03;;;;;;;;;;;18.30;53.90;;;;;;10119834;28;880;-81
2023/02/18 16:26:58;;;;;;;;;;;18.30;53.90;;;;;;10119006;28;786;-82
2023/02/18 16:31:54;;;;;;;;;;;18.30;53.90;;;;;;10118731;28;1961;-82
2023/02/18 16:42:03;;;;;;;;;;;18.30;53.90;;;;;;10118866;28;1121;-82
2023/02/18 16:46:58;;;;;;;;;;;18.20;53.80;;;;;;10118490;28;984;-81
2023/02/18 16:51:54;;;;;;;;;;;18.30;53.70;;;;;;10118928;28;1907;-81
2023/02/18 16:56:49;;;;;;;;;;;18.30;53.70;;;;;;10133906;28;1940;-78
2023/02/18 17:01:45;;;;;;;;;;;18.30;53.70;;;;;;10118468;28;1008;-84
2023/02/18 17:06:40;;;;;;;;;;;18.30;53.70;;;;;;10119080;28;868;-84
2023/02/18 17:11:35;;;;;;;;;;;18.30;53.70;;;;;;10133092;28;1934;-82
2023/02/18 17:16:31;;;;;;;;;;;18.30;53.80;;;;;;10118133;28;952;-82
2023/02/18 17:21:26;;;;;;;;;;;18.30;53.90;;;;;;10118002;28;901;-82
2023/02/18 17:26:23;;;;;;;;;;;18.30;54.00;;;;;;10119369;28;753;-82
2023/02/18 17:31:18;;;;;;;;;;;18.30;53.90;;;;;;10124508;28;1907;-82
2023/02/18 17:36:14;;;;;;;;;;;18.30;53.90;;;;;;10124470;28;772;-70
2023/02/18 17:41:09;;;;;;;;;;;18.30;53.80;;;;;;10124328;28;1137;-70
2023/02/18 17:46:05;;;;;;;;;;;18.30;53.80;;;;;;10124076;28;901;-71
2023/02/18 17:51:00;;;;;;;;;;;18.20;53.80;;;;;;10124006;28;1914;-82
2023/02/18 17:55:56;;;;;;;;;;;18.20;53.90;;;;;;10124589;28;879;-75
2023/02/18 18:00:51;;;;;;;;;;;18.30;54.00;;;;;;10124324;28;841;-75
2023/02/18 18:05:47;;;;;;;;;;;18.20;53.90;;;;;;10123015;28;960;-75
2023/02/18 18:10:42;;;;;;;;;;;18.20;54.00;;;;;;10123443;28;1903;-75
2023/02/18 18:15:37;;;;;;;;;;;18.20;53.90;;;;;;10123889;28;823;-75
2023/02/18 18:20:33;;;;;;;;;;;18.20;53.80;;;;;;10123128;28;853;-75
2023/02/18 18:25:28;;;;;;;;;;;18.20;53.80;;;;;;10123006;28;861;-76
2023/02/18 18:30:23;;;;;;;;;;;18.20;53.70;;;;;;10122786;28;1919;-75
2023/02/18 18:35:19;;;;;;;;;;;18.20;53.70;;;;;;10123338;28;766;-75
2023/02/18 18:40:14;;;;;;;;;;;18.20;53.70;;;;;;10122166;28;995;-76
2023/02/18 18:45:10;;;;;;;;;;;18.20;53.80;;;;;;10121600;28;1458;-76
2023/02/18 18:50:05;;;;;;;;;;;18.20;53.80;;;;;;10122529;28;924;-75
2023/02/18 18:55:00;;;;;;;;;;;18.20;53.80;;;;;;10122117;28;1926;-76
2023/02/18 18:59:56;;;;;;;;;;;18.20;53.90;;;;;;10121995;28;786;-76
2023/02/18 19:04:51;;;;;;;;;;;18.20;53.90;;;;;;10122432;28;888;-75
2023/02/18 19:09:46;;;;;;;;;;;18.20;53.90;;;;;;10121660;28;865;-76
2023/02/18 19:14:42;;;;;;;;;;;18.20;53.90;;;;;;10121463;28;1974;-75
2023/02/18 19:19:37;;;;;;;;;;;18.20;53.90;;;;;;10122122;28;806;-76
2023/02/18 19:24:32;;;;;;;;;;;18.20;53.90;;;;;;10120611;28;954;-75
2023/02/18 19:29:28;;;;;;;;;;;18.20;53.80;;;;;;10120437;28;893;-75
2023/02/18 19:34:23;;;;;;;;;;;18.20;53.70;;;;;;10120810;28;1907;-76
2023/02/18 19:39:18;;;;;;;;;;;18.20;53.70;;;;;;10121249;28;1042;-76
2023/02/18 19:44:14;;;;;;;;;;;18.20;53.60;;;;;;10121725;28;1164;-75
2023/02/18 19:49:09;;;;;;;;;;;18.20;53.50;;;;;;10120194;28;822;-76
2023/02/18 19:54:05;;;;;;;;;;;18.20;53.60;;;;;;10119675;28;1907;-76
2023/02/18 19:59:00;;;;;;;;;;;18.20;53.60;;;;;;10119524;28;946;-75
2023/02/18 20:03:55;;;;;;;;;;;18.20;53.60;;;;;;10120017;28;816;-75
2023/02/18 20:08:51;;;;;;;;;;;18.20;53.60;;;;;;10120518;28;838;-75
2023/02/18 20:13:46;;;;;;;;;;;18.20;53.60;;;;;;10119100;28;1910;-75
2023/02/18 20:18:41;;;;;;;;;;;18.20;53.50;;;;;;10120188;28;957;-76
2023/02/18 20:23:37;;;;;;;;;;;18.20;53.50;;;;;;10120010;28;822;-75
2023/02/18 20:28:32;;;;;;;;;;;18.20;53.50;;;;;;10119285;28;887;-76
2023/02/18 20:33:28;;;;;;;;;;;18.20;53.40;;;;;;10119715;28;1910;-76
2023/02/18 20:38:23;;;;;;;;;;;18.20;53.40;;;;;;10119834;28;811;-75
2023/02/18 20:43:18;;;;;;;;;;;18.20;53.50;;;;;;10119064;28;1184;-75
2023/02/18 20:48:14;;;;;;;;;;;18.20;53.50;;;;;;10118286;28;801;-75
2023/02/18 20:53:09;;;;;;;;;;;18.20;53.50;;;;;;10118640;28;1907;-75
2023/02/18 20:58:04;;;;;;;;;;;18.20;53.50;;;;;;10119151;28;900;-75
2023/02/18 21:03:00;;;;;;;;;;;18.20;53.50;;;;;;10123797;28;892;-75
2023/02/18 21:07:55;;;;;;;;;;;18.20;53.50;;;;;;10125370;28;865;-75
2023/02/18 21:12:51;;;;;;;;;;;18.20;53.40;;;;;;10125576;28;1898;-76
2023/02/18 21:17:46;;;;;;;;;;;18.10;53.40;;;;;;10125684;28;780;-76
2023/02/18 21:22:41;;;;;;;;;;;18.10;53.40;;;;;;10125629;28;876;-75
2023/02/18 21:27:37;;;;;;;;;;;18.10;53.40;;;;;;10124801;28;861;-75
2023/02/18 21:32:32;;;;;;;;;;;18.10;53.30;;;;;;10124596;28;1910;-76
2023/02/18 21:37:27;;;;;;;;;;;18.10;53.30;;;;;;10124491;28;810;-75
2023/02/18 21:42:23;;;;;;;;;;;18.10;53.30;;;;;;10124394;28;1251;-81
2023/02/18 21:47:18;;;;;;;;;;;18.10;53.40;;;;;;10124239;28;814;-81
2023/02/18 21:52:13;;;;;;;;;;;18.00;53.40;;;;;;10124006;28;1914;-80
2023/02/18 21:57:09;;;;;;;;;;;18.00;53.50;;;;;;10123922;28;901;-80
2023/02/18 22:02:04;;;;;;;;;;;17.90;53.60;;;;;;10123194;28;952;-80
2023/02/18 22:07:01;;;;;;;;;;;17.90;53.70;;;;;;10123577;28;762;-80
2023/02/18 22:11:56;;;;;;;;;;;17.80;53.70;;;;;;10122563;28;1898;-80
2023/02/18 22:16:52;;;;;;;;;;;17.90;53.70;;;;;;10123918;28;861;-80
2023/02/18 22:21:47;;;;;;;;;;;17.90;53.70;;;;;;10123147;28;809;-81
2023/02/18 22:26:43;;;;;;;;;;;17.80;53.70;;;;;;10123060;28;879;-80
2023/02/18 22:31:39;;;;;;;;;;;17.80;53.70;;;;;;10122327;28;1964;-80
2023/02/18 22:36:34;;;;;;;;;;;17.70;53.60;;;;;;10122772;28;783;-80
2023/02/18 22:41:29;;;;;;;;;;;17.80;53.60;;;;;;10122294;28;1097;-80
2023/02/18 22:46:25;;;;;;;;;;;17.80;53.60;;;;;;10123090;28;842;-80
2023/02/18 22:51:22;;;;;;;;;;;17.80;53.60;;;;;;10123006;28;1915;-80
2023/02/18 22:56:17;;;;;;;;;;;17.80;53.50;;;;;;10122108;28;1681;-80
2023/02/18 23:01:12;;;;;;;;;;;17.80;53.60;;;;;;10122560;28;977;-80
2023/02/18 23:06:08;;;;;;;;;;;17.70;53.50;;;;;;10121835;28;802;-81
2023/02/18 23:11:03;;;;;;;;;;;17.70;53.40;;;;;;10121169;28;1906;-80
2023/02/18 23:15:58;;;;;;;;;;;17.70;53.40;;;;;;10120997;28;835;-80
2023/02/18 23:26:08;;;;;;;;;;;17.70;53.50;;;;;;10119530;28;660;-80
2023/02/18 23:31:03;;;;;;;;;;;17.70;53.40;;;;;;10121575;28;1965;-80
2023/02/18 23:35:59;;;;;;;;;;;17.80;53.40;;;;;;10120992;28;877;-80
2023/02/18 23:40:54;;;;;;;;;;;17.70;53.30;;;;;;10120584;28;2049;-80
2023/02/18 23:45:50;;;;;;;;;;;17.80;53.40;;;;;;10120107;28;971;-80
2023/02/18 23:50:45;;;;;;;;;;;17.70;53.20;;;;;;10120976;28;1910;-80
2023/02/18 23:55:40;;;;;;;;;;;17.70;53.30;;;;;;10120299;28;797;-80
